Overview Statistics Trail Chart Weather Telemetry Raw packets
 

This is the latest recevied weather packets stored in our database for station/object IW1RID-3. If no packets are shown the sender has not sent any weather packets the latest 10 day(s).

<< 20 21 22 23 24 25 26 >>
Time Temp. Humidity Pressure Rain* Wind** Luminosity Snow
1787995129 27.78° C 44% 1071.8 hPa - - - -
1787993924 26.67° C 42% 1071.8 hPa - - - -
1787992720 25.56° C 40% 1071.8 hPa - - - -
1787991515 24.44° C 45% 1071.7 hPa - - - -
1787990311 23.33° C 53% 1071.7 hPa - - - -
1787989106 22.22° C 55% 1071.6 hPa - - - -
1787987902 21.11° C 59% 1071.4 hPa - - - -
1787986696 20° C 67% 1071.5 hPa - - - -
1787985492 20° C 64% 1071.5 hPa - - - -
1787984287 18.33° C 74% 1071.3 hPa - - - -
1787983082 18.33° C 75% 1071.4 hPa - - - -
1787981878 19.44° C 70% 1071.4 hPa - - - -
1787980673 18.89° C 75% 1071.3 hPa - - - -
1787979468 17.78° C 84% 1071.2 hPa - - - -
1787978263 18.33° C 84% 1071.2 hPa - - - -
1787977058 18.33° C 84% 1071.2 hPa - - - -
1787975853 18.89° C 84% 1071.3 hPa - - - -
1787974649 18.89° C 85% 1071.2 hPa - - - -
1787973443 18.89° C 87% 1070.8 hPa - - - -
1787972239 18.89° C 86% 1070.9 hPa - - - -
1787971034 18.89° C 87% 1070.8 hPa - - - -
1787969830 20° C 83% 1070.9 hPa - - - -
1787968625 20.56° C 79% 1070.4 hPa - - - -
1787967420 20° C 86% 1070.4 hPa - - - -
1787966216 20° C 87% 1070 hPa - - - -

* Rain since midnight (hover to see other rain measurements)
** Current wind speed in m/s (hover to see current wind gust speed)